Terminal Aerodrome Forecast
Issued by NWS

Home | Current Version | Previous Version | Text Only | Print | Product List | Glossary On
Versions: 1 2 3 4 5 6 7 8 9 10 11 12 13 14 15 16 17 18 19 20 21 22 23 24
641
FTUS41 KGYX 221328 AAB
TAFRKD
TAF AMD
KRKD 221328Z 2213/2312 05006KT P6SM OVC025
     FM221600 04007KT P6SM OVC035
     FM230000 05008G14KT P6SM OVC050=

USA.gov is the U.S. government's official web portal to all federal, state and local government web resources and services.